Terminal Aerodrome Forecast
Issued by NWS

Home | Current Version | Previous Version | Graphics & Text | Print | Product List | Glossary On
Versions: 1 2 3 4 5 6 7 8 9 10 11 12 13 14 15 16 17 18
000
FTUS43 KMPX 161700
TAFAXN
TAF
KAXN 161730Z 1618/1718 33014G20KT P6SM SCT010 BKN020 OVC050
      TEMPO 1618/1622 4SM -SN BKN015
     FM170200 33009KT P6SM -SN OVC025
     FM170500 34007KT P6SM BKN015
     FM171500 01005KT P6SM SCT020=

USA.gov is the U.S. government's official web portal to all federal, state and local government web resources and services.